createdAt,value
2018-04-10T00:01:14.163Z,51.00
2018-04-10T00:03:41.678Z,51.00
2018-04-10T00:06:09.158Z,50.80
2018-04-10T00:08:36.610Z,50.70
2018-04-10T00:11:04.095Z,50.40
2018-04-10T00:13:31.525Z,50.60
2018-04-10T00:15:59.007Z,50.70
2018-04-10T00:18:26.466Z,50.80
2018-04-10T00:20:53.922Z,50.90
2018-04-10T00:23:21.372Z,50.90
2018-04-10T00:25:48.837Z,51.20
2018-04-10T00:28:16.295Z,51.60
2018-04-10T00:30:43.757Z,51.20
2018-04-10T00:33:11.213Z,51.20
2018-04-10T00:35:38.654Z,51.20
2018-04-10T00:38:06.132Z,51.10
2018-04-10T00:40:33.629Z,51.20
2018-04-10T00:43:01.085Z,51.60
2018-04-10T00:45:28.543Z,51.70
2018-04-10T00:47:56.000Z,52.30
2018-04-10T00:50:23.473Z,52.30
2018-04-10T00:52:50.925Z,53.30
2018-04-10T00:55:18.370Z,53.30
2018-04-10T00:57:45.828Z,53.70
2018-04-10T01:00:13.286Z,54.30
2018-04-10T01:02:40.757Z,54.30
2018-04-10T01:05:08.227Z,54.30
2018-04-10T01:07:35.697Z,54.20
2018-04-10T01:10:03.163Z,54.80
2018-04-10T01:12:30.622Z,55.20
2018-04-10T01:14:58.070Z,55.20
2018-04-10T01:17:25.526Z,55.40
2018-04-10T01:19:53.761Z,55.90
2018-04-10T01:22:21.257Z,55.90
2018-04-10T01:24:48.709Z,56.20
2018-04-10T01:27:16.283Z,56.60
2018-04-10T01:29:43.730Z,56.70
2018-04-10T01:32:11.189Z,56.70
2018-04-10T01:34:38.637Z,56.60
2018-04-10T01:37:06.090Z,56.70
2018-04-10T01:39:34.315Z,56.80
2018-04-10T01:42:01.802Z,57.50
2018-04-10T01:44:30.049Z,57.40
2018-04-10T01:46:57.539Z,57.50
2018-04-10T01:49:24.989Z,57.60
2018-04-10T01:51:52.443Z,57.80
2018-04-10T01:54:19.898Z,58.10
2018-04-10T01:56:47.356Z,58.90
2018-04-10T01:59:14.817Z,58.70
2018-04-10T02:01:43.057Z,58.80
2018-04-10T02:04:10.520Z,58.70
2018-04-10T02:06:37.954Z,58.70
2018-04-10T02:09:05.407Z,59.30
2018-04-10T02:11:33.631Z,58.60
2018-04-10T02:14:01.103Z,59.20
2018-04-10T02:16:28.577Z,58.10
2018-04-10T02:18:56.109Z,58.80
2018-04-10T02:21:24.326Z,57.30
2018-04-10T02:23:51.782Z,57.90
2018-04-10T02:26:19.237Z,57.20
2018-04-10T02:28:47.472Z,57.00
2018-04-10T02:31:14.916Z,56.90
2018-04-10T02:33:42.439Z,57.10
2018-04-10T02:36:09.892Z,57.00
2018-04-10T02:38:37.352Z,57.20
2018-04-10T02:41:04.804Z,56.80
2018-04-10T02:43:32.262Z,56.20
2018-04-10T02:45:59.698Z,56.00
2018-04-10T02:48:27.170Z,56.20
2018-04-10T02:50:54.646Z,56.30
2018-04-10T02:53:22.094Z,56.20
2018-04-10T02:55:49.547Z,56.20
2018-04-10T02:58:16.998Z,56.60
2018-04-10T03:00:44.464Z,57.20
2018-04-10T03:03:11.974Z,57.30
2018-04-10T03:05:39.915Z,57.80
2018-04-10T03:08:07.366Z,57.70
2018-04-10T03:10:34.805Z,57.70
2018-04-10T03:13:02.274Z,57.80
2018-04-10T03:15:29.725Z,58.00
2018-04-10T03:17:57.177Z,58.70
2018-04-10T03:20:24.633Z,59.00
2018-04-10T03:22:52.101Z,59.40
2018-04-10T03:25:19.562Z,59.70
2018-04-10T03:27:47.019Z,60.10
2018-04-10T03:30:14.473Z,60.60
2018-04-10T03:32:41.933Z,60.50
2018-04-10T03:35:09.388Z,61.00
2018-04-10T03:37:36.849Z,60.80
2018-04-10T03:40:04.298Z,60.30
2018-04-10T03:42:31.764Z,60.30
2018-04-10T03:44:59.227Z,60.70
2018-04-10T03:47:26.676Z,60.50
2018-04-10T03:49:54.129Z,60.60
2018-04-10T03:52:21.586Z,60.50
2018-04-10T03:54:49.811Z,60.60
2018-04-10T03:57:17.277Z,60.60
2018-04-10T03:59:44.741Z,60.80
2018-04-10T04:02:12.875Z,60.70
2018-04-10T04:04:40.354Z,60.90
2018-04-10T04:07:07.824Z,61.00
2018-04-10T04:09:35.289Z,61.40
2018-04-10T04:12:02.743Z,61.90
2018-04-10T04:14:30.239Z,62.50
2018-04-10T04:17:09.637Z,62.90
2018-04-10T04:19:49.111Z,63.00
2018-04-10T04:22:28.507Z,62.80
2018-04-10T04:24:55.996Z,62.90
2018-04-10T04:27:23.439Z,62.90
2018-04-10T04:29:52.510Z,62.70
2018-04-10T04:32:19.998Z,62.60
2018-04-10T04:34:47.479Z,62.70
2018-04-10T04:37:14.929Z,63.00
2018-04-10T04:39:42.387Z,62.80
2018-04-10T04:42:09.851Z,62.90
2018-04-10T04:44:37.340Z,63.10
2018-04-10T04:47:04.791Z,63.70
2018-04-10T04:49:32.263Z,63.80
2018-04-10T04:51:59.728Z,64.00
2018-04-10T04:54:27.957Z,63.50
2018-04-10T04:56:55.418Z,63.50
2018-04-10T04:59:22.874Z,63.10
2018-04-10T05:01:51.110Z,63.30
2018-04-10T05:04:18.596Z,63.40
2018-04-10T05:06:46.052Z,64.40
2018-04-10T05:09:13.601Z,64.00
2018-04-10T05:11:41.041Z,65.10
2018-04-10T05:14:09.414Z,66.80
2018-04-10T05:16:36.866Z,66.80
2018-04-10T05:19:04.348Z,67.20
2018-04-10T05:21:31.832Z,67.10
2018-04-10T05:23:59.290Z,66.60
2018-04-10T05:26:26.746Z,66.30
2018-04-10T05:28:54.206Z,66.20
2018-04-10T05:31:21.650Z,66.30
2018-04-10T05:33:49.121Z,66.50
2018-04-10T05:36:17.344Z,66.00
2018-04-10T05:38:44.836Z,66.00
2018-04-10T05:41:12.319Z,65.90
2018-04-10T05:43:39.794Z,65.40
2018-04-10T05:46:07.296Z,64.70
2018-04-10T05:48:34.787Z,64.60
2018-04-10T05:51:02.262Z,64.50
2018-04-10T05:53:29.722Z,64.80
2018-04-10T05:55:57.195Z,64.50
2018-04-10T05:58:24.690Z,63.80
2018-04-10T06:00:52.138Z,64.00
2018-04-10T06:03:19.599Z,63.50
2018-04-10T06:05:47.067Z,63.20
2018-04-10T06:08:14.682Z,62.90
2018-04-10T06:10:42.167Z,62.50
2018-04-10T06:13:09.995Z,61.70
2018-04-10T06:15:37.444Z,61.10
2018-04-10T06:18:04.903Z,60.70
2018-04-10T06:20:32.372Z,60.10
2018-04-10T06:22:59.826Z,59.60
2018-04-10T06:25:27.312Z,58.90
2018-04-10T06:27:54.782Z,58.40
2018-04-10T06:30:22.248Z,58.00
2018-04-10T06:32:49.743Z,57.20
2018-04-10T06:35:17.195Z,56.70
2018-04-10T06:37:44.657Z,56.10
2018-04-10T06:40:12.167Z,56.00
2018-04-10T06:42:39.619Z,56.00
2018-04-10T06:45:07.095Z,55.40
2018-04-10T06:47:35.353Z,54.70
2018-04-10T06:50:02.809Z,54.70
2018-04-10T06:52:30.246Z,54.10
2018-04-10T06:54:58.553Z,53.20
2018-04-10T06:57:26.022Z,53.20
2018-04-10T06:59:53.484Z,53.60
2018-04-10T07:02:21.025Z,52.70
2018-04-10T07:04:48.487Z,52.40
2018-04-10T07:07:16.710Z,51.40
2018-04-10T07:09:44.213Z,51.30
2018-04-10T07:12:11.670Z,50.70
2018-04-10T07:14:39.157Z,50.40
2018-04-10T07:17:06.654Z,49.70
2018-04-10T07:19:34.121Z,49.40
2018-04-10T07:22:01.599Z,48.50
2018-04-10T07:24:29.088Z,47.70
2018-04-10T07:26:56.540Z,47.50
2018-04-10T07:29:23.995Z,47.40
2018-04-10T07:31:52.254Z,46.90
2018-04-10T07:34:19.725Z,47.80
2018-04-10T07:36:47.172Z,49.50
2018-04-10T07:39:14.648Z,50.10
2018-04-10T07:41:42.113Z,49.10
2018-04-10T07:44:09.563Z,48.20
2018-04-10T07:46:37.014Z,48.20
2018-04-10T07:49:04.478Z,47.30
2018-04-10T07:51:31.966Z,47.50
2018-04-10T07:53:59.469Z,47.10
2018-04-10T07:56:26.912Z,46.60
2018-04-10T07:58:54.361Z,46.30
2018-04-10T08:01:21.819Z,45.80
2018-04-10T08:03:50.093Z,45.00
2018-04-10T08:06:17.499Z,45.00
2018-04-10T08:08:44.954Z,44.50
2018-04-10T08:11:13.213Z,43.30
2018-04-10T08:13:40.662Z,43.20
2018-04-10T08:16:08.127Z,43.80
2018-04-10T08:18:36.518Z,44.60
2018-04-10T08:21:04.002Z,43.90
2018-04-10T08:23:31.472Z,44.80
2018-04-10T08:25:58.944Z,44.50
2018-04-10T08:28:26.436Z,44.10
2018-04-10T08:30:53.876Z,43.40
2018-04-10T08:33:21.369Z,43.80
2018-04-10T08:35:48.817Z,43.80
2018-04-10T08:38:16.286Z,43.40
2018-04-10T08:40:43.758Z,43.70
2018-04-10T08:43:11.957Z,46.20
2018-04-10T08:45:39.414Z,46.20
2018-04-10T08:48:06.869Z,46.30
2018-04-10T08:50:34.390Z,46.50
2018-04-10T08:53:01.801Z,46.30
2018-04-10T08:55:30.036Z,45.10
2018-04-10T08:57:57.489Z,45.10
2018-04-10T09:00:24.951Z,44.30
2018-04-10T09:02:53.172Z,44.80
2018-04-10T09:05:20.661Z,44.80
2018-04-10T09:07:48.864Z,44.30
2018-04-10T09:10:16.335Z,44.40
2018-04-10T09:12:43.793Z,44.20
2018-04-10T09:15:12.052Z,43.50
2018-04-10T09:17:40.283Z,42.70
2018-04-10T09:20:07.729Z,42.70
2018-04-10T09:22:35.179Z,42.50
2018-04-10T09:25:02.642Z,41.60
2018-04-10T09:27:30.843Z,41.70
2018-04-10T09:29:58.305Z,41.70
2018-04-10T09:32:25.753Z,41.80
2018-04-10T09:34:53.224Z,41.90
2018-04-10T09:37:20.680Z,42.50
2018-04-10T09:39:48.905Z,41.70
2018-04-10T09:42:16.375Z,41.70
2018-04-10T09:44:43.886Z,40.30
2018-04-10T09:47:11.325Z,41.00
2018-04-10T09:49:38.930Z,40.40
2018-04-10T09:52:07.127Z,40.30
2018-04-10T09:54:34.570Z,40.30
2018-04-10T09:57:02.046Z,41.10
2018-04-10T09:59:29.490Z,41.50
2018-04-10T10:01:56.944Z,41.20
2018-04-10T10:04:25.146Z,40.50
2018-04-10T10:06:52.594Z,40.50
2018-04-10T10:09:20.048Z,39.60
2018-04-10T10:11:47.535Z,39.00
2018-04-10T10:14:14.974Z,38.70
2018-04-10T10:16:42.424Z,38.70
2018-04-10T10:19:09.880Z,38.70
2018-04-10T10:21:38.126Z,39.10
2018-04-10T10:24:06.336Z,38.20
2018-04-10T10:26:33.782Z,38.20
2018-04-10T10:29:01.242Z,37.50
2018-04-10T10:31:28.702Z,37.90
2018-04-10T10:33:56.995Z,38.70
2018-04-10T10:36:24.433Z,38.70
2018-04-10T10:38:51.904Z,39.80
2018-04-10T10:41:19.387Z,41.50
2018-04-10T10:43:46.808Z,41.00
2018-04-10T10:46:14.265Z,41.30
2018-04-10T10:48:41.728Z,41.10
2018-04-10T10:51:09.281Z,41.80
2018-04-10T10:53:36.739Z,42.30
2018-04-10T10:56:04.206Z,41.80
2018-04-10T10:58:31.655Z,40.30
2018-04-10T11:00:59.229Z,40.30
2018-04-10T11:03:26.677Z,39.50
2018-04-10T11:05:54.141Z,39.50
2018-04-10T11:08:21.607Z,39.00
2018-04-10T11:10:49.146Z,38.60
2018-04-10T11:13:16.670Z,38.00
2018-04-10T11:15:44.881Z,38.10
2018-04-10T11:18:12.329Z,38.10
2018-04-10T11:20:39.863Z,37.30
2018-04-10T11:23:07.329Z,36.90
2018-04-10T11:25:34.863Z,36.80
2018-04-10T11:28:02.322Z,36.80
2018-04-10T11:30:29.818Z,35.80
2018-04-10T11:32:57.281Z,36.10
2018-04-10T11:35:24.885Z,35.30
2018-04-10T11:37:53.113Z,36.40
2018-04-10T11:40:20.590Z,35.60
2018-04-10T11:42:48.825Z,36.10
2018-04-10T11:45:16.317Z,36.10
2018-04-10T11:47:43.768Z,36.20
2018-04-10T11:50:11.218Z,35.10
2018-04-10T11:52:38.684Z,35.60
2018-04-10T11:55:06.150Z,34.80
2018-04-10T11:57:33.707Z,34.20
2018-04-10T12:00:01.151Z,34.90
2018-04-10T12:02:29.398Z,35.70
2018-04-10T12:04:56.852Z,35.70
2018-04-10T12:07:25.065Z,35.90
2018-04-10T12:09:52.563Z,35.90
2018-04-10T12:12:20.797Z,34.50
2018-04-10T12:14:48.298Z,34.50
2018-04-10T12:17:15.772Z,35.20
2018-04-10T12:19:43.218Z,35.90
2018-04-10T12:22:10.691Z,37.30
2018-04-10T12:24:38.901Z,38.10
2018-04-10T12:27:06.408Z,37.40
2018-04-10T12:29:33.870Z,37.80
2018-04-10T12:32:01.335Z,36.80
2018-04-10T12:34:28.805Z,37.10
2018-04-10T12:36:56.270Z,38.00
2018-04-10T12:39:24.475Z,36.80
2018-04-10T12:41:51.925Z,36.80
2018-04-10T12:44:19.387Z,36.60
2018-04-10T12:46:46.821Z,36.20
2018-04-10T12:49:14.270Z,36.00
2018-04-10T12:51:41.750Z,38.90
2018-04-10T12:54:09.981Z,39.20
2018-04-10T12:56:37.463Z,39.20
2018-04-10T12:59:05.670Z,39.30
2018-04-10T13:01:33.146Z,39.20
2018-04-10T13:04:00.601Z,38.70
2018-04-10T13:06:28.826Z,37.60
2018-04-10T13:08:56.299Z,37.50
2018-04-10T13:11:23.854Z,37.10
2018-04-10T13:13:51.394Z,37.80
2018-04-10T13:16:18.846Z,37.90
2018-04-10T13:18:46.306Z,38.40
2018-04-10T13:21:13.782Z,39.90
2018-04-10T13:23:41.252Z,40.00
2018-04-10T13:26:08.717Z,40.90
2018-04-10T13:28:36.942Z,39.00
2018-04-10T13:31:04.407Z,39.70
2018-04-10T13:33:32.618Z,40.40
2018-04-10T13:36:00.070Z,40.40
2018-04-10T13:38:27.530Z,40.40
2018-04-10T13:40:54.988Z,40.30
2018-04-10T13:43:23.246Z,39.10
2018-04-10T13:45:50.742Z,39.10
2018-04-10T13:48:18.217Z,39.70
2018-04-10T13:50:45.678Z,39.50
2018-04-10T13:53:13.926Z,38.90
2018-04-10T13:55:41.369Z,38.90
2018-04-10T13:58:08.862Z,38.60
2018-04-10T14:00:36.326Z,39.00
2018-04-10T14:03:03.850Z,40.30
2018-04-10T14:05:31.299Z,38.00
2018-04-10T14:07:58.745Z,39.10
2018-04-10T14:10:26.194Z,38.90
2018-04-10T14:12:53.656Z,39.30
2018-04-10T14:15:21.119Z,39.30
2018-04-10T14:17:48.578Z,38.90
2018-04-10T14:20:16.805Z,38.70
2018-04-10T14:22:44.296Z,38.70
2018-04-10T14:25:12.533Z,37.70
2018-04-10T14:27:39.998Z,37.70
2018-04-10T14:30:07.485Z,39.00
2018-04-10T14:32:34.944Z,39.40
2018-04-10T14:35:02.420Z,39.60
2018-04-10T14:37:30.677Z,38.90
2018-04-10T14:39:58.117Z,38.70
2018-04-10T14:42:26.362Z,40.40
2018-04-10T14:44:53.875Z,40.40
2018-04-10T14:47:21.323Z,39.90
2018-04-10T14:49:48.761Z,40.60
2018-04-10T14:52:16.214Z,41.00
2018-04-10T14:54:43.854Z,40.40
2018-04-10T14:57:12.077Z,40.10
2018-04-10T14:59:39.533Z,40.10
2018-04-10T15:02:06.990Z,40.30
2018-04-10T15:04:34.431Z,39.70
2018-04-10T15:07:01.881Z,40.40
2018-04-10T15:09:29.325Z,40.30
2018-04-10T15:11:56.791Z,40.30
2018-04-10T15:14:24.235Z,40.50
2018-04-10T15:16:51.708Z,40.30
2018-04-10T15:19:19.950Z,40.00
2018-04-10T15:21:47.389Z,39.90
2018-04-10T15:24:14.875Z,39.00
2018-04-10T15:26:42.334Z,38.90
2018-04-10T15:29:09.780Z,38.60
2018-04-10T15:31:37.270Z,39.00
2018-04-10T15:34:05.713Z,39.10
2018-04-10T15:36:33.192Z,39.60
2018-04-10T15:39:00.657Z,39.80
2018-04-10T15:41:28.190Z,40.10
2018-04-10T15:43:55.653Z,40.00
2018-04-10T15:46:23.126Z,40.80
2018-04-10T15:48:50.574Z,42.90
2018-04-10T15:51:18.037Z,42.40
2018-04-10T15:53:45.535Z,42.60
2018-04-10T15:56:13.121Z,42.90
2018-04-10T15:58:40.680Z,42.70
2018-04-10T16:01:08.892Z,44.20
2018-04-10T16:03:36.351Z,43.50
2018-04-10T16:06:03.802Z,43.70
2018-04-10T16:08:31.275Z,44.10
2018-04-10T16:10:58.738Z,44.40
2018-04-10T16:13:26.210Z,44.70
2018-04-10T16:15:53.650Z,44.00
2018-04-10T16:18:21.118Z,43.50
2018-04-10T16:20:48.565Z,43.90
2018-04-10T16:23:16.034Z,43.90
2018-04-10T16:25:43.480Z,43.90
2018-04-10T16:28:11.745Z,43.80
2018-04-10T16:30:41.933Z,44.50
2018-04-10T16:33:09.442Z,44.50
2018-04-10T16:35:37.175Z,45.30
2018-04-10T16:38:05.870Z,46.30
2018-04-10T16:40:33.386Z,46.60
2018-04-10T16:43:00.841Z,47.20
2018-04-10T16:45:28.298Z,47.50
2018-04-10T16:47:55.783Z,47.30
2018-04-10T16:50:23.230Z,46.20
2018-04-10T16:52:51.923Z,45.70
2018-04-10T16:55:19.380Z,45.70
2018-04-10T16:57:46.872Z,45.80
2018-04-10T17:00:14.342Z,45.80
2018-04-10T17:02:41.781Z,45.90
2018-04-10T17:05:09.305Z,46.20
2018-04-10T17:07:36.748Z,45.90
2018-04-10T17:10:04.219Z,45.60
2018-04-10T17:12:31.758Z,46.10
2018-04-10T17:14:59.975Z,45.70
2018-04-10T17:17:28.389Z,45.70
2018-04-10T17:19:57.363Z,45.90
2018-04-10T17:22:24.807Z,45.90
2018-04-10T17:24:52.287Z,46.30
2018-04-10T17:27:19.741Z,46.30
2018-04-10T17:29:47.208Z,46.60
2018-04-10T17:32:14.682Z,46.60
2018-04-10T17:34:42.905Z,46.50
2018-04-10T17:37:10.358Z,46.40
2018-04-10T17:39:37.813Z,46.40
2018-04-10T17:42:06.094Z,45.90
2018-04-10T17:44:33.573Z,45.90
2018-04-10T17:47:01.045Z,45.80
2018-04-10T17:49:28.506Z,45.30
2018-04-10T17:51:55.962Z,45.20
2018-04-10T17:54:23.464Z,44.90
2018-04-10T17:56:50.939Z,44.40
2018-04-10T17:59:19.198Z,40.00
2018-04-10T18:01:47.428Z,39.50
2018-04-10T18:04:14.899Z,39.50
2018-04-10T18:06:43.146Z,39.10
2018-04-10T18:09:10.615Z,39.00
2018-04-10T18:11:38.071Z,39.30
2018-04-10T18:14:05.531Z,40.00
2018-04-10T18:16:33.040Z,40.10
2018-04-10T18:19:01.262Z,39.50
2018-04-10T18:21:28.739Z,39.40
2018-04-10T18:23:57.001Z,40.80
2018-04-10T18:26:24.450Z,40.80
2018-04-10T18:28:52.676Z,39.80
2018-04-10T18:31:20.148Z,40.50
2018-04-10T18:33:49.570Z,39.30
2018-04-10T18:36:17.261Z,38.90
2018-04-10T18:38:44.707Z,38.60
2018-04-10T18:41:12.146Z,38.40
2018-04-10T18:43:39.671Z,38.60
2018-04-10T18:46:07.176Z,39.10
2018-04-10T18:48:34.654Z,39.60
2018-04-10T18:51:02.110Z,39.90
2018-04-10T18:53:30.576Z,40.30
2018-04-10T18:55:58.046Z,40.70
2018-04-10T18:58:26.488Z,41.60
2018-04-10T19:00:54.767Z,45.70
2018-04-10T19:03:22.583Z,45.70
2018-04-10T19:05:50.042Z,48.40
2018-04-10T19:08:17.627Z,49.60
2018-04-10T19:10:45.874Z,53.90
2018-04-10T19:13:13.332Z,53.80
2018-04-10T19:15:41.580Z,56.30
2018-04-10T19:18:09.032Z,56.20
2018-04-10T19:20:37.258Z,57.40
2018-04-10T19:23:04.688Z,57.50
2018-04-10T19:25:32.143Z,59.80
2018-04-10T19:27:59.602Z,60.70
2018-04-10T19:30:27.114Z,61.80
2018-04-10T19:32:54.564Z,62.30
2018-04-10T19:35:22.019Z,62.80
2018-04-10T19:37:49.479Z,63.10
2018-04-10T19:40:17.713Z,66.70
2018-04-10T19:42:45.191Z,66.50
2018-04-10T19:45:12.718Z,68.20
2018-04-10T19:47:40.357Z,69.70
2018-04-10T19:50:07.834Z,70.40
2018-04-10T19:52:36.957Z,70.00
2018-04-10T19:55:04.411Z,70.10
2018-04-10T19:57:31.846Z,72.60
2018-04-10T19:59:59.306Z,75.30
2018-04-10T20:02:26.752Z,73.50
2018-04-10T20:04:54.218Z,73.10
2018-04-10T20:07:22.442Z,75.50
2018-04-10T20:09:49.956Z,75.50
2018-04-10T20:12:17.414Z,75.90
2018-04-10T20:14:44.874Z,79.50
2018-04-10T20:17:12.347Z,78.70
2018-04-10T20:19:39.812Z,78.40
2018-04-10T20:22:08.029Z,78.70
2018-04-10T20:24:35.503Z,78.70
2018-04-10T20:27:03.750Z,79.40
2018-04-10T20:29:31.240Z,79.50
2018-04-10T20:31:58.693Z,82.90
2018-04-10T20:34:26.155Z,83.80
2018-04-10T20:36:53.626Z,84.60
2018-04-10T20:39:21.084Z,82.60
2018-04-10T20:41:48.571Z,86.50
2018-04-10T20:44:16.026Z,88.70
2018-04-10T20:46:43.516Z,87.30
2018-04-10T20:49:11.737Z,87.70
2018-04-10T20:51:39.226Z,87.70
2018-04-10T20:54:06.710Z,88.80
2018-04-10T20:56:34.182Z,88.70
2018-04-10T20:59:01.645Z,90.30
2018-04-10T21:01:29.124Z,89.00
2018-04-10T21:03:56.614Z,88.10
2018-04-10T21:06:24.064Z,89.30
2018-04-10T21:08:51.508Z,88.90
2018-04-10T21:11:18.973Z,86.30
2018-04-10T21:13:46.418Z,87.80
2018-04-10T21:16:13.922Z,86.50
2018-04-10T21:18:41.384Z,87.00
2018-04-10T21:21:08.993Z,86.10
2018-04-10T21:23:36.457Z,86.40
2018-04-10T21:26:03.912Z,85.90
2018-04-10T21:28:31.372Z,86.50
2018-04-10T21:30:58.821Z,85.30
2018-04-10T21:33:27.086Z,84.80
2018-04-10T21:38:39.759Z,86.90
2018-04-10T21:41:07.410Z,86.50
2018-04-10T21:43:35.505Z,86.00
2018-04-10T21:46:02.959Z,86.40
2018-04-10T21:48:30.437Z,85.60
2018-04-10T21:50:57.887Z,85.50
2018-04-10T21:53:25.343Z,86.50
2018-04-10T21:55:53.568Z,85.70
2018-04-10T21:58:21.993Z,85.70
2018-04-10T22:00:50.019Z,85.50
2018-04-10T22:03:17.539Z,85.40
2018-04-10T22:05:45.038Z,86.90
2018-04-10T22:08:12.547Z,86.70
2018-04-10T22:10:40.006Z,86.10
2018-04-10T22:13:11.085Z,86.60
2018-04-10T22:15:38.554Z,86.10
2018-04-10T22:18:06.046Z,84.30
2018-04-10T22:20:33.492Z,85.80
2018-04-10T23:44:58.822Z,85.90
2018-04-10T23:47:26.280Z,85.30
2018-04-10T23:49:53.765Z,85.30
2018-04-10T23:52:21.222Z,83.50
2018-04-10T23:54:48.704Z,83.50
2018-04-10T23:57:16.162Z,83.00
2018-04-10T23:59:44.402Z,81.60
